createdAt,value
2018-12-06T00:01:59.731Z,21.30
2018-12-06T00:04:33.199Z,21.20
2018-12-06T00:07:07.073Z,21.30
2018-12-06T00:09:39.745Z,21.20
2018-12-06T00:12:12.446Z,21.20
2018-12-06T00:14:44.901Z,21.10
2018-12-06T00:17:17.813Z,21.00
2018-12-06T00:19:51.382Z,21.00
2018-12-06T00:22:25.296Z,20.90
2018-12-06T00:24:57.817Z,20.90
2018-12-06T00:27:31.849Z,20.90
2018-12-06T00:30:14.014Z,20.90
2018-12-06T00:32:46.897Z,20.70
2018-12-06T00:35:20.326Z,20.70
2018-12-06T00:37:53.302Z,20.60
2018-12-06T00:40:25.914Z,20.50
2018-12-06T00:42:58.670Z,20.50
2018-12-06T00:45:31.180Z,20.50
2018-12-06T00:48:03.945Z,20.50
2018-12-06T00:50:36.379Z,20.40
2018-12-06T00:53:09.251Z,20.30
2018-12-06T00:55:42.006Z,20.30
2018-12-06T00:58:14.869Z,20.40
2018-12-06T01:00:47.612Z,20.40
2018-12-06T01:03:21.019Z,20.40
2018-12-06T01:05:53.750Z,20.30
2018-12-06T01:08:26.590Z,20.30
2018-12-06T01:11:00.108Z,20.20
2018-12-06T01:13:32.803Z,20.10
2018-12-06T01:16:06.062Z,20.00
2018-12-06T01:18:40.136Z,20.00
2018-12-06T01:21:13.740Z,19.90
2018-12-06T01:23:46.506Z,19.80
2018-12-06T01:26:19.261Z,19.80
2018-12-06T01:28:52.214Z,19.70
2018-12-06T01:31:24.763Z,19.70
2018-12-06T01:33:57.884Z,19.60
2018-12-06T01:36:30.690Z,19.60
2018-12-06T01:39:03.677Z,19.50
2018-12-06T01:41:36.647Z,19.60
2018-12-06T01:44:09.502Z,19.40
2018-12-06T01:46:43.136Z,19.40
2018-12-06T01:49:16.483Z,19.30
2018-12-06T01:51:49.123Z,19.20
2018-12-06T01:54:21.833Z,19.20
2018-12-06T01:56:54.596Z,19.20
2018-12-06T01:59:28.099Z,19.20
2018-12-06T02:02:01.498Z,19.10
2018-12-06T02:04:34.459Z,19.10
2018-12-06T02:07:08.333Z,19.10
2018-12-06T02:09:41.347Z,19.10
2018-12-06T02:12:16.919Z,19.10
2018-12-06T02:14:49.806Z,19.10
2018-12-06T02:17:26.322Z,19.10
2018-12-06T02:19:59.290Z,19.10
2018-12-06T02:22:32.066Z,19.00
2018-12-06T02:25:04.824Z,19.00
2018-12-06T02:27:38.483Z,18.90
2018-12-06T02:30:11.247Z,18.80
2018-12-06T02:32:43.997Z,18.80
2018-12-06T02:35:16.887Z,18.70
2018-12-06T02:37:49.605Z,18.80
2018-12-06T02:40:27.124Z,18.80
2018-12-06T02:43:03.405Z,18.70
2018-12-06T02:45:35.989Z,18.70
2018-12-06T02:48:08.469Z,18.60
2018-12-06T02:50:41.349Z,18.60
2018-12-06T02:53:14.034Z,18.50
2018-12-06T02:55:47.624Z,18.40
2018-12-06T02:58:20.326Z,18.40
2018-12-06T03:00:53.049Z,18.40
2018-12-06T03:03:25.723Z,18.40
2018-12-06T03:05:58.551Z,18.40
2018-12-06T03:08:31.179Z,18.30
2018-12-06T03:11:04.087Z,18.30
2018-12-06T03:13:37.051Z,18.30
2018-12-06T03:16:09.736Z,18.20
2018-12-06T03:18:42.327Z,18.30
2018-12-06T03:21:15.138Z,18.30
2018-12-06T03:23:49.076Z,18.40
2018-12-06T03:26:22.130Z,18.40
2018-12-06T03:28:54.985Z,18.40
2018-12-06T03:31:27.855Z,18.40
2018-12-06T03:34:00.416Z,18.40
2018-12-06T03:36:33.168Z,18.30
2018-12-06T03:39:07.136Z,18.30
2018-12-06T03:41:39.973Z,18.20
2018-12-06T03:44:12.941Z,18.20
2018-12-06T03:46:45.527Z,18.20
2018-12-06T03:49:18.326Z,18.20
2018-12-06T03:51:51.148Z,18.10
2018-12-06T03:54:23.741Z,18.20
2018-12-06T03:56:56.568Z,18.10
2018-12-06T03:59:29.249Z,18.10
2018-12-06T04:02:02.110Z,18.10
2018-12-06T04:04:34.594Z,18.00
2018-12-06T04:07:08.074Z,18.00
2018-12-06T04:09:40.686Z,18.00
2018-12-06T04:12:13.238Z,18.00
2018-12-06T04:14:45.915Z,17.90
2018-12-06T04:17:18.673Z,17.90
2018-12-06T04:19:51.394Z,17.90
2018-12-06T04:22:24.109Z,17.80
2018-12-06T04:24:56.742Z,17.80
2018-12-06T04:27:29.566Z,17.80
2018-12-06T04:30:02.205Z,17.80
2018-12-06T04:32:35.959Z,17.70
2018-12-06T04:35:08.485Z,17.70
2018-12-06T04:37:41.078Z,17.60
2018-12-06T04:40:13.591Z,17.50
2018-12-06T04:42:45.959Z,17.50
2018-12-06T04:45:19.394Z,17.50
2018-12-06T04:47:52.113Z,17.50
2018-12-06T04:50:24.621Z,17.50
2018-12-06T04:52:58.520Z,17.50
2018-12-06T04:55:31.145Z,17.40
2018-12-06T04:58:03.890Z,17.40
2018-12-06T05:00:36.393Z,17.40
2018-12-06T05:03:10.319Z,17.40
2018-12-06T05:05:42.958Z,17.40
2018-12-06T05:08:15.908Z,17.30
2018-12-06T05:10:48.442Z,17.20
2018-12-06T05:13:21.586Z,17.20
2018-12-06T05:15:54.384Z,17.20
2018-12-06T05:18:27.100Z,17.20
2018-12-06T05:21:00.315Z,17.10
2018-12-06T05:23:33.119Z,17.10
2018-12-06T05:26:05.765Z,17.10
2018-12-06T05:28:38.579Z,17.00
2018-12-06T05:31:11.209Z,17.00
2018-12-06T05:33:43.961Z,17.00
2018-12-06T05:36:17.821Z,16.90
2018-12-06T05:38:51.467Z,17.00
2018-12-06T05:41:23.774Z,16.90
2018-12-06T05:43:57.223Z,16.90
2018-12-06T05:46:29.935Z,16.90
2018-12-06T05:49:03.667Z,16.90
2018-12-06T05:51:36.452Z,16.80
2018-12-06T05:54:09.105Z,16.80
2018-12-06T05:56:41.659Z,16.80
2018-12-06T05:59:14.391Z,16.80
2018-12-06T06:01:47.212Z,16.80
2018-12-06T06:04:19.770Z,16.90
2018-12-06T06:06:52.507Z,16.90
2018-12-06T06:09:25.686Z,16.90
2018-12-06T06:11:59.391Z,16.90
2018-12-06T06:14:35.422Z,16.90
2018-12-06T06:17:08.248Z,17.00
2018-12-06T06:19:40.922Z,16.90
2018-12-06T06:22:13.336Z,16.90
2018-12-06T06:24:46.803Z,16.90
2018-12-06T06:27:20.401Z,17.00
2018-12-06T06:29:53.203Z,16.90
2018-12-06T06:32:25.638Z,16.90
2018-12-06T06:34:58.159Z,16.80
2018-12-06T06:37:30.988Z,16.80
2018-12-06T06:40:04.479Z,16.90
2018-12-06T06:42:37.222Z,17.00
2018-12-06T06:45:10.064Z,17.00
2018-12-06T06:47:42.840Z,17.00
2018-12-06T06:50:15.819Z,17.00
2018-12-06T06:52:48.315Z,17.00
2018-12-06T06:55:21.031Z,17.00
2018-12-06T06:57:53.627Z,17.00
2018-12-06T07:00:26.343Z,17.00
2018-12-06T07:02:58.822Z,17.00
2018-12-06T07:05:31.734Z,17.20
2018-12-06T07:08:04.925Z,17.20
2018-12-06T07:10:37.713Z,17.10
2018-12-06T07:13:10.237Z,17.00
2018-12-06T07:15:42.822Z,17.10
2018-12-06T07:18:16.370Z,17.10
2018-12-06T07:27:51.004Z,17.00
2018-12-06T07:30:23.674Z,16.90
2018-12-06T07:32:56.357Z,16.80
2018-12-06T07:35:29.118Z,16.80
2018-12-06T07:38:01.883Z,16.80
2018-12-06T07:40:38.158Z,16.80
2018-12-06T07:43:10.830Z,16.70
2018-12-06T07:45:43.393Z,16.70
2018-12-06T07:48:15.934Z,16.70
2018-12-06T07:50:48.666Z,16.80
2018-12-06T07:53:21.599Z,16.80
2018-12-06T07:55:54.112Z,16.80
2018-12-06T07:58:26.854Z,16.80
2018-12-06T08:00:59.632Z,16.80
2018-12-06T08:03:32.626Z,16.90
2018-12-06T08:06:06.208Z,16.90
2018-12-06T08:08:38.939Z,16.90
2018-12-06T08:11:11.525Z,16.80
2018-12-06T08:13:44.293Z,16.80
2018-12-06T08:16:17.367Z,16.70
2018-12-06T08:18:50.153Z,16.70
2018-12-06T08:21:23.031Z,16.60
2018-12-06T08:23:55.606Z,16.80
2018-12-06T08:26:28.412Z,16.80
2018-12-06T08:29:01.895Z,16.80
2018-12-06T08:31:35.650Z,16.80
2018-12-06T08:34:08.612Z,16.80
2018-12-06T08:36:41.200Z,16.70
2018-12-06T08:39:13.714Z,16.70
2018-12-06T08:41:46.342Z,16.70
2018-12-06T08:44:21.503Z,16.70
2018-12-06T08:46:53.975Z,16.60
2018-12-06T08:49:26.764Z,16.60
2018-12-06T08:51:59.353Z,16.60
2018-12-06T08:54:31.908Z,16.60
2018-12-06T08:57:04.624Z,16.60
2018-12-06T08:59:37.230Z,16.60
2018-12-06T09:02:09.911Z,16.60
2018-12-06T09:04:42.703Z,16.50
2018-12-06T09:07:15.679Z,16.50
2018-12-06T09:09:48.264Z,16.40
2018-12-06T09:12:21.046Z,16.40
2018-12-06T09:14:53.922Z,16.50
2018-12-06T09:17:26.441Z,16.50
2018-12-06T09:19:59.089Z,16.50
2018-12-06T09:22:31.802Z,16.50
2018-12-06T09:25:04.651Z,16.50
2018-12-06T09:27:37.284Z,16.50
2018-12-06T09:30:10.424Z,16.50
2018-12-06T09:32:42.962Z,16.60
2018-12-06T09:35:15.579Z,16.60
2018-12-06T09:37:48.390Z,16.60
2018-12-06T09:40:21.857Z,16.50
2018-12-06T09:42:54.614Z,16.50
2018-12-06T09:45:27.536Z,16.40
2018-12-06T09:48:00.030Z,16.40
2018-12-06T09:50:33.499Z,16.40
2018-12-06T09:53:06.037Z,16.30
2018-12-06T09:55:38.947Z,16.30
2018-12-06T09:58:11.613Z,16.30
2018-12-06T10:00:44.322Z,16.20
2018-12-06T10:03:17.922Z,16.20
2018-12-06T10:05:50.779Z,16.20
2018-12-06T10:08:23.460Z,16.10
2018-12-06T10:10:56.187Z,16.00
2018-12-06T10:13:28.882Z,16.00
2018-12-06T10:16:02.047Z,16.00
2018-12-06T10:18:34.827Z,16.00
2018-12-06T10:21:07.932Z,16.00
2018-12-06T10:23:40.740Z,16.00
2018-12-06T10:26:13.519Z,16.00
2018-12-06T10:28:46.096Z,16.00
2018-12-06T10:31:18.638Z,16.10
2018-12-06T10:33:51.246Z,16.10
2018-12-06T10:36:24.103Z,16.10
2018-12-06T10:38:56.742Z,16.10
2018-12-06T10:41:29.325Z,16.10
2018-12-06T10:44:01.867Z,16.00
2018-12-06T10:46:34.728Z,16.00
2018-12-06T10:49:07.268Z,16.00
2018-12-06T10:51:44.969Z,16.00
2018-12-06T10:54:17.707Z,16.00
2018-12-06T10:56:50.667Z,16.00
2018-12-06T10:59:23.399Z,15.90
2018-12-06T11:02:00.511Z,15.90
2018-12-06T11:04:38.095Z,15.80
2018-12-06T11:07:11.252Z,15.80
2018-12-06T11:09:45.736Z,15.80
2018-12-06T11:12:18.355Z,15.90
2018-12-06T11:14:52.348Z,15.90
2018-12-06T11:17:25.135Z,15.90
2018-12-06T11:19:57.778Z,15.90
2018-12-06T11:22:30.422Z,15.90
2018-12-06T11:25:03.003Z,16.00
2018-12-06T11:34:36.523Z,16.00
2018-12-06T11:37:09.038Z,15.90
2018-12-06T11:39:41.829Z,15.90
2018-12-06T11:42:14.611Z,15.90
2018-12-06T11:44:47.426Z,15.90
2018-12-06T11:47:20.072Z,15.80
2018-12-06T11:49:53.465Z,15.80
2018-12-06T11:52:26.168Z,15.70
2018-12-06T11:54:58.827Z,15.80
2018-12-06T11:57:31.374Z,15.70
2018-12-06T12:00:04.872Z,15.70
2018-12-06T12:02:40.559Z,15.70
2018-12-06T12:05:13.241Z,15.60
2018-12-06T12:07:46.863Z,15.70
2018-12-06T12:10:20.540Z,15.60
2018-12-06T12:12:53.183Z,15.60
2018-12-06T12:15:27.716Z,15.70
2018-12-06T12:18:01.227Z,15.70
2018-12-06T12:20:33.798Z,15.70
2018-12-06T12:23:10.643Z,15.70
2018-12-06T12:25:43.740Z,15.70
2018-12-06T12:28:18.500Z,15.70
2018-12-06T12:30:57.084Z,15.60
2018-12-06T12:33:30.121Z,15.60
2018-12-06T12:36:03.595Z,15.60
2018-12-06T12:38:38.565Z,15.60
2018-12-06T12:41:14.599Z,15.60
2018-12-06T12:43:48.146Z,15.60
2018-12-06T12:46:23.405Z,15.50
2018-12-06T12:48:56.382Z,15.50
2018-12-06T12:51:31.683Z,15.50
2018-12-06T12:54:05.200Z,15.50
2018-12-06T12:56:38.143Z,15.50
2018-12-06T13:02:22.360Z,15.60
2018-12-06T13:25:09.981Z,15.70
2018-12-06T13:40:50.651Z,16.10
2018-12-06T13:53:31.167Z,16.80
2018-12-06T13:56:15.919Z,17.00
2018-12-06T14:02:06.598Z,17.10
2018-12-06T14:04:39.849Z,17.30
2018-12-06T14:07:12.475Z,17.50
2018-12-06T14:09:46.564Z,17.50
2018-12-06T14:12:19.238Z,17.70
2018-12-06T14:15:06.433Z,17.70
2018-12-06T14:17:39.971Z,17.70
2018-12-06T14:24:30.470Z,17.90
2018-12-06T14:27:07.045Z,17.90
2018-12-06T14:29:53.363Z,18.00
2018-12-06T14:32:44.749Z,18.10
2018-12-06T14:39:03.791Z,18.30
2018-12-06T14:46:51.573Z,18.50
2018-12-06T14:49:25.106Z,18.60
2018-12-06T14:51:59.703Z,18.80
2018-12-06T14:58:39.521Z,18.90
2018-12-06T15:01:20.816Z,19.00
2018-12-06T15:03:53.222Z,19.00
2018-12-06T15:06:27.299Z,19.10
2018-12-06T15:09:39.145Z,19.10
2018-12-06T15:12:27.710Z,19.20
2018-12-06T15:32:01.345Z,19.20
2018-12-06T15:34:42.439Z,19.30
2018-12-06T15:40:36.504Z,20.20
2018-12-06T15:43:32.720Z,20.20
2018-12-06T15:59:06.527Z,20.20
2018-12-06T16:01:39.906Z,20.20
2018-12-06T16:04:15.422Z,19.90
2018-12-06T16:06:53.836Z,19.90
2018-12-06T16:09:27.489Z,19.90
2018-12-06T16:12:01.496Z,20.00
2018-12-06T16:14:34.430Z,20.10
2018-12-06T16:17:15.763Z,20.10
2018-12-06T16:19:55.357Z,20.20
2018-12-06T16:22:28.459Z,20.20
2018-12-06T16:25:10.529Z,20.20
2018-12-06T16:27:43.710Z,20.30
2018-12-06T16:30:16.531Z,20.30
2018-12-06T16:32:49.622Z,20.40
2018-12-06T16:35:22.614Z,20.50
2018-12-06T16:37:55.356Z,20.50
2018-12-06T16:40:28.023Z,20.70
2018-12-06T16:43:00.553Z,20.70
2018-12-06T16:45:33.830Z,20.80
2018-12-06T16:48:06.958Z,20.80
2018-12-06T16:50:39.624Z,20.90
2018-12-06T16:53:12.249Z,20.80
2018-12-06T16:55:47.770Z,20.90
2018-12-06T16:58:20.920Z,21.00
2018-12-06T17:00:53.766Z,21.10
2018-12-06T17:03:28.302Z,21.10
2018-12-06T17:06:02.900Z,21.10
2018-12-06T17:08:35.600Z,21.20
2018-12-06T17:11:09.049Z,21.20
2018-12-06T17:13:41.843Z,21.10
2018-12-06T17:16:19.150Z,21.10
2018-12-06T17:18:51.477Z,21.10
2018-12-06T17:21:25.107Z,21.20
2018-12-06T17:23:57.992Z,21.30
2018-12-06T17:26:34.762Z,21.30
2018-12-06T17:29:07.431Z,21.20
2018-12-06T17:37:23.666Z,21.10
2018-12-06T17:39:56.346Z,21.00
2018-12-06T17:42:29.678Z,21.10
2018-12-06T17:45:04.220Z,21.20
2018-12-06T17:47:37.053Z,21.20
2018-12-06T17:50:10.204Z,21.20
2018-12-06T17:52:43.129Z,21.20
2018-12-06T17:55:15.867Z,21.40
2018-12-06T17:57:48.918Z,21.40
2018-12-06T18:00:21.670Z,21.40
2018-12-06T18:02:55.785Z,21.40
2018-12-06T18:05:29.078Z,21.30
2018-12-06T18:08:02.919Z,21.50
2018-12-06T18:10:36.316Z,21.70
2018-12-06T18:13:09.312Z,21.80
2018-12-06T18:15:48.806Z,22.00
2018-12-06T18:18:21.252Z,22.10
2018-12-06T18:24:54.340Z,22.00
2018-12-06T18:27:27.615Z,22.10
2018-12-06T18:59:11.961Z,23.00
2018-12-06T19:01:44.536Z,23.00
2018-12-06T19:10:42.853Z,23.00
2018-12-06T19:13:20.457Z,23.00
2018-12-06T19:15:54.969Z,23.00
2018-12-06T19:18:28.012Z,23.10
2018-12-06T19:21:23.700Z,23.10
2018-12-06T19:23:57.037Z,23.10
2018-12-06T19:29:41.851Z,23.20
2018-12-06T19:43:54.722Z,23.30
2018-12-06T20:06:49.565Z,23.90
2018-12-06T20:22:58.438Z,23.70
2018-12-06T20:25:40.815Z,23.50
2018-12-06T20:45:21.890Z,23.30
2018-12-06T20:48:01.796Z,23.90
2018-12-06T20:50:58.089Z,23.60
2018-12-06T20:53:31.114Z,23.70
2018-12-06T20:56:17.899Z,23.80
2018-12-06T20:58:54.654Z,24.00
2018-12-06T21:01:35.221Z,24.00
2018-12-06T21:40:38.689Z,23.90
2018-12-06T21:43:36.197Z,23.80
2018-12-06T21:46:19.865Z,23.50
2018-12-06T22:02:49.038Z,23.10
2018-12-06T22:08:21.252Z,23.10
2018-12-06T22:10:53.805Z,23.00
2018-12-06T22:13:27.510Z,22.70
2018-12-06T22:16:00.428Z,22.60
2018-12-06T22:18:34.130Z,22.60
2018-12-06T22:21:08.665Z,22.50
2018-12-06T22:42:44.524Z,22.40
2018-12-06T22:45:56.060Z,21.60
2018-12-06T22:48:28.920Z,21.50
2018-12-06T22:51:02.672Z,21.40
2018-12-06T22:53:35.609Z,21.20
2018-12-06T22:56:15.175Z,21.10
2018-12-06T22:58:48.376Z,21.10
2018-12-06T23:01:25.302Z,21.10
2018-12-06T23:03:59.551Z,21.00
2018-12-06T23:06:52.162Z,21.00
2018-12-06T23:09:25.688Z,20.90
2018-12-06T23:12:08.831Z,20.80
2018-12-06T23:17:49.411Z,20.70
2018-12-06T23:20:22.453Z,20.70
2018-12-06T23:22:55.336Z,20.60
2018-12-06T23:25:28.240Z,20.50
2018-12-06T23:28:01.140Z,20.30
2018-12-06T23:30:35.538Z,20.20
2018-12-06T23:33:12.113Z,20.20
2018-12-06T23:35:55.882Z,20.20
2018-12-06T23:38:29.293Z,20.20
